Gardnerville, NV (89410)

10:20 PM PDT on July 23, 2017 (GMT -0700)
| | Change Station
Active Advisory: Fire Weather Advisory

Elev -9999 ft 0.00 °N, 0.00 °E | Updated 14 minutes ago

Clear
Clear
°F
Feels Like °F
N
Wind Variable Wind from North
Gusts mph

Today
High -- | Low -- °F
--% Chance of Precip.
Yesterday
High -- | Low -- °F
Precip. -- in
Pressure 29.96 in
Visibility 10.0 miles
Clouds Clear
Dew Point Not available.
Humidity Not available.
Rainfall --
Snow Depth Not available.
5:52 AM 8:18 PM
New Moon, 1% visible
METAR KTVL 240453Z AUTO 00000KT 10SM CLR 18/08 A3016 RMK AO2 SLP143 T01780078
Pressure 29.96 in
Visibility 10.0 miles
Clouds Clear
Dew Point Not available.
Humidity Not available.
Rainfall --
Snow Depth Not available.
5:52 AM 8:18 PM
New Moon, 1% visible
METAR KTVL 240453Z AUTO 00000KT 10SM CLR 18/08 A3016 RMK AO2 SLP143 T01780078

Get Your Daily Forecast Email!

Thanks for signing up!

Be on the lookout for a verification email in your inbox.

You'll start receiving severe weather alerts in your inbox..

×

10-Day Weather Forecast

Almanac

Astronomy

Jul. 23, 2017 Rise Set
Actual Time
Civil Twilight
Nautical Twilight
Astronomical Twilight
Moon
Length of Visible Light
Length of Day
Tomorrow will be .
, % of the Moon is Illuminated

Today's Extremes

State Highs State Lows

Community

WunderPhotos

Category 6

Welcome to Category 6. This is the collective home for Weather Underground's featured writeups by Dr. Jeff Masters (right), Bob Henson (left), Chris Burt, and other regular contributors.

Nearby

Air Quality

  Air Quality AQ Index Pollutant
Not available.

Snow Depth

Station Depth Elevation

Earthquake Activity

City Distance Mag. Time & Date
Minimum magnitude displayed is 2.5.

Coastal Water Temperatures

Place Temperature

Stations

Nearby Weather Stations

Station Location Temp. Windchill Dew Point Humidity Wind Precip. Elev Updated Type
                   

Watches & Warnings

Fire Weather Advisory
Issued: 10:05 PM PDT Jul. 23, 2017 – National Weather Service

... Red flag warning is cancelled for northeast California and
northwest Nevada...

The National Weather Service in Reno has cancelled the red flag
warning.

Showers and thunderstorms are still possible through the night
although coverage of storms is expected to remain at low end
isolated. While a few starts are still possible, the threat of
more widespread starts has diminished.


Http://weather.Gov/Reno